createdAt,value
2022-11-13T00:01:23.107Z,22.92
2022-11-13T00:03:50.549Z,21.60
2022-11-13T00:06:18.925Z,22.95
2022-11-13T00:08:47.016Z,21.23
2022-11-13T00:11:18.358Z,22.63
2022-11-13T00:13:46.567Z,21.92
2022-11-13T00:16:16.744Z,20.10
2022-11-13T00:18:44.001Z,19.48
2022-11-13T00:21:16.782Z,20.95
2022-11-13T00:23:44.046Z,18.98
2022-11-13T00:26:14.631Z,19.38
2022-11-13T00:28:42.399Z,18.63
2022-11-13T00:31:10.742Z,20.02
2022-11-13T00:34:02.401Z,18.85
2022-11-13T00:36:27.305Z,16.60
2022-11-13T00:38:55.185Z,18.83
2022-11-13T00:41:23.337Z,18.08
2022-11-13T00:43:50.739Z,17.88
2022-11-13T00:46:17.732Z,17.42
2022-11-13T00:48:44.761Z,19.90
2022-11-13T00:51:11.914Z,18.45
2022-11-13T00:53:39.183Z,19.52
2022-11-13T00:56:06.319Z,18.58
2022-11-13T00:58:33.443Z,18.55
2022-11-13T01:01:11.870Z,20.17
2022-11-13T01:03:39.250Z,19.65
2022-11-13T01:06:10.875Z,19.48
2022-11-13T01:08:37.911Z,17.42
2022-11-13T01:11:10.346Z,18.33
2022-11-13T01:13:37.425Z,20.20
2022-11-13T01:16:09.789Z,17.80
2022-11-13T01:18:37.311Z,18.55
2022-11-13T01:21:13.162Z,17.98
2022-11-13T01:23:40.562Z,18.67
2022-11-13T01:26:16.872Z,18.13
2022-11-13T01:28:45.698Z,17.85
2022-11-13T01:31:18.899Z,17.63
2022-11-13T01:33:47.420Z,17.00
2022-11-13T01:36:20.302Z,18.90
2022-11-13T01:38:47.934Z,19.13
2022-11-13T01:41:29.881Z,19.63
2022-11-13T01:43:57.376Z,18.23
2022-11-13T01:46:34.587Z,17.08
2022-11-13T01:49:10.606Z,18.70
2022-11-13T01:51:46.494Z,18.60
2022-11-13T01:54:18.785Z,16.98
2022-11-13T01:56:45.798Z,18.33
2022-11-13T01:59:20.229Z,18.40
2022-11-13T02:01:47.757Z,18.02
2022-11-13T02:04:15.290Z,19.80
2022-11-13T02:06:53.253Z,19.33
2022-11-13T02:09:41.587Z,19.52
2022-11-13T02:12:12.373Z,18.60
2022-11-13T02:14:46.106Z,19.95
2022-11-13T02:17:21.275Z,20.95
2022-11-13T02:19:52.925Z,17.30
2022-11-13T02:22:27.367Z,18.98
2022-11-13T02:24:58.196Z,19.80
2022-11-13T02:27:42.380Z,20.20
2022-11-13T02:30:27.219Z,18.67
2022-11-13T02:32:56.623Z,18.58
2022-11-13T02:35:37.235Z,19.20
2022-11-13T02:38:06.075Z,20.33
2022-11-13T02:40:34.463Z,17.90
2022-11-13T02:43:01.323Z,20.42
2022-11-13T02:45:28.165Z,20.70
2022-11-13T02:47:55.322Z,20.45
2022-11-13T02:50:22.267Z,21.80
2022-11-13T02:52:49.158Z,21.52
2022-11-13T02:55:16.418Z,20.15
2022-11-13T02:57:43.296Z,20.00
2022-11-13T03:00:14.078Z,20.20
2022-11-13T03:02:42.159Z,19.58
2022-11-13T03:05:12.569Z,18.65
2022-11-13T03:07:40.658Z,19.95
2022-11-13T03:10:09.040Z,19.23
2022-11-13T03:12:36.206Z,18.80
2022-11-13T03:15:03.576Z,21.50
2022-11-13T03:17:34.467Z,19.08
2022-11-13T03:20:01.413Z,18.80
2022-11-13T03:22:28.829Z,20.33
2022-11-13T03:24:55.680Z,18.95
2022-11-13T03:27:22.785Z,18.92
2022-11-13T03:29:49.681Z,18.75
2022-11-13T03:32:16.587Z,20.40
2022-11-13T03:34:43.964Z,18.30
2022-11-13T03:37:10.842Z,16.92
2022-11-13T03:39:37.694Z,18.63
2022-11-13T03:42:04.886Z,18.15
2022-11-13T03:44:31.764Z,17.40
2022-11-13T03:46:58.633Z,16.23
2022-11-13T03:49:25.800Z,16.55
2022-11-13T03:51:52.634Z,17.75
2022-11-13T03:54:19.522Z,17.05
2022-11-13T03:56:46.667Z,16.92
2022-11-13T03:59:13.520Z,17.30
2022-11-13T04:01:40.731Z,16.45
2022-11-13T04:04:07.625Z,17.08
2022-11-13T04:06:34.535Z,17.20
2022-11-13T04:09:01.692Z,15.70
2022-11-13T04:11:28.566Z,17.63
2022-11-13T04:13:55.679Z,16.00
2022-11-13T04:16:22.533Z,16.35
2022-11-13T04:18:49.763Z,17.15
2022-11-13T04:21:16.710Z,15.48
2022-11-13T04:23:43.539Z,16.70
2022-11-13T04:26:10.709Z,16.05
2022-11-13T04:28:37.679Z,16.00
2022-11-13T04:31:04.614Z,15.73
2022-11-13T04:33:31.798Z,16.15
2022-11-13T04:35:58.717Z,17.42
2022-11-13T04:38:25.711Z,17.17
2022-11-13T04:41:12.926Z,15.43
2022-11-13T04:43:39.790Z,13.50
2022-11-13T04:46:07.020Z,15.90
2022-11-13T04:48:34.240Z,16.65
2022-11-13T04:51:01.139Z,17.15
2022-11-13T04:53:28.285Z,14.55
2022-11-13T04:55:55.238Z,16.30
2022-11-13T04:58:22.104Z,15.40
2022-11-13T05:00:49.245Z,15.35
2022-11-13T05:03:16.116Z,15.27
2022-11-13T05:05:43.002Z,14.27
2022-11-13T05:08:10.705Z,14.73
2022-11-13T05:10:37.762Z,15.38
2022-11-13T05:13:04.920Z,15.35
2022-11-13T05:15:31.866Z,14.40
2022-11-13T05:17:58.743Z,16.42
2022-11-13T05:20:25.892Z,16.05
2022-11-13T05:22:52.781Z,15.98
2022-11-13T05:25:19.653Z,13.70
2022-11-13T05:27:46.768Z,14.65
2022-11-13T05:30:13.675Z,13.43
2022-11-13T05:32:40.618Z,13.68
2022-11-13T05:35:08.141Z,12.43
2022-11-13T05:37:35.027Z,14.02
2022-11-13T05:40:01.886Z,14.43
2022-11-13T05:42:29.041Z,13.52
2022-11-13T05:44:55.948Z,13.60
2022-11-13T05:47:23.229Z,13.25
2022-11-13T05:49:50.085Z,13.45
2022-11-13T05:52:16.974Z,14.35
2022-11-13T05:54:44.183Z,13.70
2022-11-13T05:57:11.116Z,14.10
2022-11-13T05:59:38.021Z,12.38
2022-11-13T06:02:05.179Z,13.77
2022-11-13T06:04:32.066Z,13.93
2022-11-13T06:06:58.943Z,12.90
2022-11-13T06:09:26.165Z,13.35
2022-11-13T06:11:53.059Z,14.38
2022-11-13T06:14:19.956Z,14.10
2022-11-13T06:16:47.198Z,14.32
2022-11-13T06:19:14.072Z,14.57
2022-11-13T06:21:41.470Z,14.30
2022-11-13T06:24:11.309Z,14.77
2022-11-13T06:26:38.865Z,13.98
2022-11-13T06:29:07.846Z,14.45
2022-11-13T06:31:36.624Z,13.77
2022-11-13T06:34:04.618Z,14.60
2022-11-13T06:36:34.899Z,15.90
2022-11-13T06:39:02.308Z,13.95
2022-11-13T06:41:31.440Z,14.90
2022-11-13T06:44:02.704Z,14.43
2022-11-13T06:46:31.549Z,15.23
2022-11-13T06:48:59.117Z,15.40
2022-11-13T06:51:28.230Z,15.18
2022-11-13T06:53:55.842Z,15.15
2022-11-13T06:56:22.874Z,14.77
2022-11-13T06:58:50.100Z,16.60
2022-11-13T07:01:20.396Z,14.93
2022-11-13T07:03:47.615Z,14.23
2022-11-13T07:06:21.400Z,15.15
2022-11-13T07:08:48.855Z,16.05
2022-11-13T07:11:21.362Z,14.63
2022-11-13T07:13:48.780Z,14.77
2022-11-13T07:16:18.123Z,13.65
2022-11-13T07:18:51.505Z,13.82
2022-11-13T07:21:19.135Z,14.10
2022-11-13T07:23:48.834Z,14.15
2022-11-13T07:26:15.907Z,14.38
2022-11-13T07:28:43.222Z,14.18
2022-11-13T07:31:12.470Z,14.10
2022-11-13T07:33:39.667Z,14.65
2022-11-13T07:36:08.069Z,16.27
2022-11-13T07:38:36.051Z,15.35
2022-11-13T07:41:04.630Z,14.45
2022-11-13T07:43:31.852Z,16.27
2022-11-13T07:46:00.274Z,15.95
2022-11-13T07:48:28.528Z,14.90
2022-11-13T07:50:59.191Z,15.73
2022-11-13T07:53:26.298Z,15.65
2022-11-13T07:55:53.175Z,15.73
2022-11-13T07:58:20.376Z,14.20
2022-11-13T08:00:47.504Z,13.18
2022-11-13T08:03:16.396Z,12.13
2022-11-13T08:05:43.730Z,13.45
2022-11-13T08:08:14.773Z,13.88
2022-11-13T08:10:42.056Z,13.48
2022-11-13T08:13:10.765Z,16.92
2022-11-13T08:15:38.054Z,14.77
2022-11-13T08:18:05.849Z,15.35
2022-11-13T08:20:32.850Z,15.05
2022-11-13T08:23:02.260Z,14.25
2022-11-13T08:25:30.354Z,15.30
2022-11-13T08:27:58.144Z,14.27
2022-11-13T08:30:27.010Z,15.55
2022-11-13T08:32:54.755Z,16.25
2022-11-13T08:35:28.048Z,15.73
2022-11-13T08:38:04.453Z,16.60
2022-11-13T08:40:32.012Z,14.70
2022-11-13T08:43:04.070Z,16.63
2022-11-13T08:45:31.450Z,14.82
2022-11-13T08:48:04.391Z,14.85
2022-11-13T08:50:32.126Z,13.75
2022-11-13T08:53:00.601Z,15.20
2022-11-13T08:55:28.286Z,15.98
2022-11-13T08:58:01.767Z,14.38
2022-11-13T09:02:58.539Z,14.10
2022-11-13T09:05:26.190Z,16.30
2022-11-13T09:08:00.607Z,15.93
2022-11-13T09:10:28.272Z,14.23
2022-11-13T09:12:59.516Z,13.88
2022-11-13T09:15:26.531Z,14.27
2022-11-13T09:18:01.644Z,13.88
2022-11-13T09:20:30.571Z,13.18
2022-11-13T09:22:58.690Z,13.10
2022-11-13T09:25:26.769Z,12.57
2022-11-13T09:28:00.624Z,10.88
2022-11-13T09:30:29.535Z,10.27
2022-11-13T09:32:57.975Z,9.90
2022-11-13T09:35:36.840Z,8.57
2022-11-13T09:38:15.153Z,9.20
2022-11-13T09:40:54.345Z,8.75
2022-11-13T09:43:27.447Z,9.25
2022-11-13T09:46:01.974Z,9.52
2022-11-13T09:48:43.681Z,8.88
2022-11-13T09:51:18.831Z,8.82
2022-11-13T09:53:47.220Z,8.07
2022-11-13T09:56:40.814Z,8.05
2022-11-13T09:59:22.928Z,7.35
2022-11-13T10:01:57.973Z,7.45
2022-11-13T10:05:08.607Z,7.55
2022-11-13T10:08:01.101Z,7.38
2022-11-13T10:10:52.104Z,8.45
2022-11-13T10:13:31.815Z,8.60
2022-11-13T10:16:31.763Z,8.00
2022-11-13T10:19:25.743Z,6.40
2022-11-13T10:22:32.090Z,4.90
2022-11-13T10:25:12.766Z,5.95
2022-11-13T10:27:41.436Z,7.10
2022-11-13T10:31:05.182Z,6.18
2022-11-13T10:33:32.198Z,5.90
2022-11-13T10:36:18.990Z,7.68
2022-11-13T10:39:08.603Z,7.38
2022-11-13T10:41:50.467Z,6.65
2022-11-13T10:44:30.214Z,6.43
2022-11-13T10:47:15.991Z,9.82
2022-11-13T10:49:43.642Z,8.45
2022-11-13T10:52:26.624Z,7.63
2022-11-13T10:55:17.629Z,7.60
2022-11-13T10:58:00.597Z,9.23
2022-11-13T11:00:31.788Z,8.23
2022-11-13T11:02:59.828Z,7.88
2022-11-13T11:05:28.248Z,9.80
2022-11-13T11:07:57.285Z,10.05
2022-11-13T11:10:34.448Z,8.77
2022-11-13T11:13:13.715Z,8.10
2022-11-13T11:15:56.693Z,7.20
2022-11-13T11:18:42.224Z,7.65
2022-11-13T11:21:14.227Z,10.30
2022-11-13T11:24:06.047Z,9.60
2022-11-13T11:26:38.078Z,9.50
2022-11-13T11:29:27.531Z,10.82
2022-11-13T11:32:09.972Z,9.55
2022-11-13T11:34:56.242Z,10.23
2022-11-13T11:37:35.301Z,9.55
2022-11-13T11:40:27.727Z,13.75
2022-11-13T11:43:01.072Z,12.50
2022-11-13T11:45:42.671Z,13.40
2022-11-13T11:48:19.069Z,16.67
2022-11-13T11:51:00.627Z,11.85
2022-11-13T11:53:36.690Z,10.48
2022-11-13T11:56:31.770Z,11.00
2022-11-13T11:59:31.427Z,9.00
2022-11-13T12:02:26.615Z,8.52
2022-11-13T12:05:01.668Z,9.38
2022-11-13T12:07:53.248Z,8.10
2022-11-13T12:10:46.173Z,9.23
2022-11-13T12:16:17.188Z,7.95
2022-11-13T12:18:55.336Z,7.85
2022-11-13T12:21:48.635Z,12.63
2022-11-13T12:24:28.183Z,8.30
2022-11-13T12:27:29.046Z,7.15
2022-11-13T12:30:17.002Z,6.45
2022-11-13T12:32:58.025Z,7.05
2022-11-13T12:35:27.110Z,8.65
2022-11-13T12:38:20.765Z,10.32
2022-11-13T12:41:18.836Z,15.90
2022-11-13T12:43:53.195Z,6.78
2022-11-13T12:46:21.803Z,7.85
2022-11-13T12:48:57.890Z,8.48
2022-11-13T12:51:32.550Z,8.43
2022-11-13T12:53:59.596Z,7.40
2022-11-13T12:56:27.732Z,10.65
2022-11-13T12:59:31.402Z,8.55
2022-11-13T13:02:09.471Z,6.45
2022-11-13T13:05:16.140Z,9.63
2022-11-13T13:07:49.208Z,7.60
2022-11-13T13:10:43.068Z,9.50
2022-11-13T13:13:24.244Z,10.98
2022-11-13T13:16:05.594Z,16.42
2022-11-13T13:18:38.017Z,9.13
2022-11-13T13:21:13.634Z,10.20
2022-11-13T13:23:43.910Z,7.50
2022-11-13T13:26:17.461Z,10.13
2022-11-13T13:29:20.605Z,8.07
2022-11-13T13:32:01.578Z,8.07
2022-11-13T13:34:35.497Z,8.45
2022-11-13T13:37:31.438Z,7.95
2022-11-13T13:40:18.181Z,8.00
2022-11-13T13:43:28.495Z,13.95
2022-11-13T13:46:31.874Z,19.50
2022-11-13T13:49:07.030Z,13.07
2022-11-13T13:51:40.540Z,10.43
2022-11-13T13:54:09.897Z,7.72
2022-11-13T13:56:42.420Z,13.18
2022-11-13T13:59:18.541Z,6.67
2022-11-13T14:02:01.839Z,4.95
2022-11-13T14:06:59.744Z,5.38
2022-11-13T14:09:29.526Z,6.13
2022-11-13T14:12:16.649Z,5.63
2022-11-13T14:14:43.537Z,6.32
2022-11-13T14:17:12.349Z,6.93
2022-11-13T14:19:39.474Z,8.43
2022-11-13T14:22:16.675Z,21.35
2022-11-13T14:24:48.928Z,15.45
2022-11-13T14:27:21.141Z,12.10
2022-11-13T14:29:55.450Z,9.10
2022-11-13T14:32:29.219Z,7.90
2022-11-13T14:35:07.789Z,6.90
2022-11-13T14:37:47.408Z,7.32
2022-11-13T14:40:30.824Z,6.60
2022-11-13T14:43:09.029Z,7.40
2022-11-13T14:45:38.487Z,7.47
2022-11-13T14:48:29.856Z,14.02
2022-11-13T14:51:05.283Z,32.72
2022-11-13T14:53:37.640Z,36.17
2022-11-13T14:56:10.935Z,12.75
2022-11-13T14:58:51.451Z,9.90
2022-11-13T15:01:21.298Z,13.48
2022-11-13T15:03:50.791Z,11.38
2022-11-13T15:06:23.531Z,8.60
2022-11-13T15:08:58.623Z,14.90
2022-11-13T15:11:27.430Z,15.88
2022-11-13T15:13:57.823Z,10.07
2022-11-13T15:16:29.629Z,8.45
2022-11-13T15:19:05.909Z,8.57
2022-11-13T15:21:33.160Z,9.25
2022-11-13T15:26:44.300Z,9.95
2022-11-13T15:29:11.823Z,10.60
2022-11-13T15:31:45.172Z,19.30
2022-11-13T15:34:14.306Z,14.25
2022-11-13T15:36:44.880Z,10.50
2022-11-13T15:39:23.482Z,11.20
2022-11-13T15:41:52.544Z,11.85
2022-11-13T15:44:21.949Z,8.77
2022-11-13T15:46:50.761Z,18.77
2022-11-13T15:49:19.150Z,16.00
2022-11-13T15:51:50.361Z,13.88
2022-11-13T15:54:36.293Z,14.10
2022-11-13T15:57:03.650Z,10.23
2022-11-13T15:59:31.192Z,7.82
2022-11-13T16:02:01.360Z,9.20
2022-11-13T16:04:43.994Z,11.65
2022-11-13T16:07:26.866Z,9.20
2022-11-13T16:09:54.973Z,7.97
2022-11-13T16:12:21.995Z,8.95
2022-11-13T16:14:50.137Z,11.52
2022-11-13T16:17:20.541Z,12.95
2022-11-13T16:19:51.101Z,19.75
2022-11-13T16:22:24.070Z,11.45
2022-11-13T16:24:51.629Z,14.00
2022-11-13T16:27:36.453Z,10.65
2022-11-13T16:30:08.220Z,11.70
2022-11-13T16:32:35.116Z,6.00
2022-11-13T16:35:02.299Z,6.57
2022-11-13T16:37:29.333Z,4.28
2022-11-13T16:39:56.530Z,6.22
2022-11-13T16:42:29.816Z,11.15
2022-11-13T16:44:58.634Z,6.13
2022-11-13T16:47:26.710Z,6.68
2022-11-13T16:49:55.607Z,7.13
2022-11-13T16:52:24.795Z,11.40
2022-11-13T16:54:52.002Z,7.53
2022-11-13T16:57:19.868Z,7.57
2022-11-13T16:59:47.516Z,7.15
2022-11-13T17:02:22.045Z,6.45
2022-11-13T17:04:49.460Z,5.38
2022-11-13T17:07:16.804Z,6.50
2022-11-13T17:09:58.974Z,8.75
2022-11-13T17:12:40.165Z,8.38
2022-11-13T17:15:08.247Z,8.20
2022-11-13T17:17:35.184Z,9.98
2022-11-13T17:20:03.042Z,10.00
2022-11-13T17:22:30.020Z,9.27
2022-11-13T17:24:57.195Z,9.55
2022-11-13T17:27:24.124Z,10.05
2022-11-13T17:29:52.786Z,14.25
2022-11-13T17:32:19.696Z,9.27
2022-11-13T17:34:46.991Z,7.70
2022-11-13T17:37:13.945Z,8.20
2022-11-13T17:39:41.134Z,13.95
2022-11-13T17:42:07.972Z,12.68
2022-11-13T17:44:35.222Z,10.48
2022-11-13T17:47:02.119Z,16.90
2022-11-13T17:49:29.353Z,10.18
2022-11-13T17:51:56.309Z,8.10
2022-11-13T17:54:25.326Z,15.00
2022-11-13T17:56:52.156Z,11.85
2022-11-13T17:59:19.369Z,13.35
2022-11-13T18:01:46.289Z,15.55
2022-11-13T18:04:14.188Z,12.57
2022-11-13T18:06:41.071Z,14.38
2022-11-13T18:09:08.358Z,14.55
2022-11-13T18:11:35.291Z,16.75
2022-11-13T18:14:02.484Z,12.00
2022-11-13T18:16:34.590Z,8.48
2022-11-13T18:19:03.692Z,10.20
2022-11-13T18:21:33.755Z,8.68
2022-11-13T18:24:04.391Z,10.63
2022-11-13T18:26:32.438Z,6.70
2022-11-13T18:29:01.032Z,7.68
2022-11-13T18:31:29.555Z,8.35
2022-11-13T18:34:02.525Z,8.68
2022-11-13T18:36:31.646Z,7.93
2022-11-13T18:38:59.408Z,7.47
2022-11-13T18:41:26.344Z,7.65
2022-11-13T18:43:54.140Z,6.32
2022-11-13T18:46:21.909Z,8.23
2022-11-13T18:48:49.735Z,7.15
2022-11-13T18:51:21.018Z,7.68
2022-11-13T18:53:49.571Z,6.93
2022-11-13T18:56:19.556Z,7.18
2022-11-13T18:58:49.093Z,6.80
2022-11-13T19:01:23.211Z,7.47
2022-11-13T19:04:16.202Z,6.90
2022-11-13T19:06:39.382Z,7.40
2022-11-13T19:09:11.325Z,7.82
2022-11-13T19:11:38.944Z,7.93
2022-11-13T19:14:07.250Z,8.95
2022-11-13T19:16:36.709Z,8.52
2022-11-13T19:19:07.990Z,7.78
2022-11-13T19:21:36.151Z,9.80
2022-11-13T19:24:04.091Z,8.55
2022-11-13T19:26:30.936Z,7.50
2022-11-13T19:28:58.293Z,7.70
2022-11-13T19:31:27.503Z,8.25
2022-11-13T19:34:00.003Z,8.00
2022-11-13T19:36:28.662Z,8.07
2022-11-13T19:38:56.776Z,8.90
2022-11-13T19:41:24.712Z,9.40
2022-11-13T19:43:53.094Z,9.32
2022-11-13T19:46:20.928Z,10.98
2022-11-13T19:48:49.209Z,8.55
2022-11-13T19:51:18.844Z,10.10
2022-11-13T19:53:46.520Z,10.18
2022-11-13T19:56:15.513Z,11.07
2022-11-13T19:58:44.373Z,11.15
2022-11-13T20:01:15.150Z,13.35
2022-11-13T20:03:42.610Z,10.85
2022-11-13T20:06:12.435Z,11.43
2022-11-13T20:08:39.672Z,11.60
2022-11-13T20:11:13.533Z,11.20
2022-11-13T20:13:41.898Z,12.18
2022-11-13T20:16:12.268Z,14.15
2022-11-13T20:18:40.354Z,11.18
2022-11-13T20:21:07.439Z,11.18
2022-11-13T20:23:35.489Z,11.23
2022-11-13T20:26:04.817Z,13.65
2022-11-13T20:28:32.660Z,12.95
2022-11-13T20:31:19.545Z,18.50
2022-11-13T20:33:48.408Z,12.15
2022-11-13T20:36:16.884Z,14.15
2022-11-13T20:38:50.031Z,14.63
2022-11-13T20:41:20.479Z,17.45
2022-11-13T20:43:48.876Z,13.10
2022-11-13T20:46:17.877Z,18.83
2022-11-13T20:48:48.371Z,25.75
2022-11-13T20:51:16.455Z,32.42
2022-11-13T20:53:43.842Z,19.58
2022-11-13T20:56:11.138Z,18.98
2022-11-13T20:58:38.566Z,21.25
2022-11-13T21:01:13.676Z,22.95
2022-11-13T21:03:42.535Z,14.90
2022-11-13T21:06:11.533Z,15.82
2022-11-13T21:08:39.320Z,15.68
2022-11-13T21:11:07.435Z,12.68
2022-11-13T21:13:35.283Z,11.65
2022-11-13T21:16:06.742Z,15.35
2022-11-13T21:18:34.011Z,16.25
2022-11-13T21:21:12.290Z,16.77
2022-11-13T21:23:39.742Z,13.95
2022-11-13T21:26:08.178Z,15.57
2022-11-13T21:28:36.210Z,10.23
2022-11-13T21:31:10.409Z,12.38
2022-11-13T21:33:38.897Z,13.98
2022-11-13T21:36:13.093Z,14.13
2022-11-13T21:38:42.306Z,11.70
2022-11-13T21:41:24.549Z,12.10
2022-11-13T21:43:59.133Z,11.25
2022-11-13T21:46:31.119Z,12.48
2022-11-13T21:49:00.931Z,13.07
2022-11-13T21:51:28.453Z,11.55
2022-11-13T21:53:56.226Z,11.90
2022-11-13T21:56:24.357Z,14.15
2022-11-13T21:58:51.578Z,12.48
2022-11-13T22:01:18.497Z,10.48
2022-11-13T22:03:45.781Z,10.98
2022-11-13T22:06:20.006Z,15.38
2022-11-13T22:08:55.200Z,11.38
2022-11-13T22:11:23.782Z,11.82
2022-11-13T22:13:51.116Z,13.35
2022-11-13T22:16:18.404Z,12.20
2022-11-13T22:18:46.084Z,11.82
2022-11-13T22:21:14.729Z,12.15
2022-11-13T22:23:41.943Z,13.00
2022-11-13T22:26:11.296Z,11.40
2022-11-13T22:28:39.872Z,12.25
2022-11-13T22:31:07.969Z,12.07
2022-11-13T22:33:36.505Z,12.02
2022-11-13T22:36:05.549Z,13.85
2022-11-13T22:38:37.080Z,12.07
2022-11-13T22:41:10.948Z,11.98
2022-11-13T22:43:40.568Z,12.23
2022-11-13T22:46:10.747Z,10.93
2022-11-13T22:48:39.393Z,11.02
2022-11-13T22:51:18.271Z,11.52
2022-11-13T22:53:50.192Z,10.63
2022-11-13T22:56:18.470Z,10.90
2022-11-13T22:58:46.135Z,11.25
2022-11-13T23:01:19.395Z,12.23
2022-11-13T23:03:48.204Z,10.23
2022-11-13T23:06:18.653Z,8.70
2022-11-13T23:08:46.734Z,9.07
2022-11-13T23:11:19.480Z,10.23
2022-11-13T23:13:52.356Z,9.23
2022-11-13T23:16:19.665Z,9.63
2022-11-13T23:18:47.276Z,10.48
2022-11-13T23:21:14.860Z,10.73
2022-11-13T23:23:42.192Z,11.05
2022-11-13T23:26:10.921Z,10.55
2022-11-13T23:28:38.217Z,12.77
2022-11-13T23:31:06.379Z,10.65
2022-11-13T23:33:33.736Z,12.13
2022-11-13T23:36:01.297Z,10.75
2022-11-13T23:38:28.385Z,11.95
2022-11-13T23:41:00.721Z,11.77
2022-11-13T23:43:47.584Z,11.52
2022-11-13T23:46:16.145Z,11.10
2022-11-13T23:48:43.109Z,10.60
2022-11-13T23:51:10.220Z,11.07
2022-11-13T23:53:37.108Z,11.05
2022-11-13T23:56:04.618Z,10.35
2022-11-13T23:58:32.648Z,10.85
